sensor_id;sensor_type;location;lat;lon;timestamp;temperature;humidity
6863;DHT22;3470;48.738;9.616;2023-09-12T17:16:01;27.40;87.00
6863;DHT22;3470;48.738;9.616;2023-09-12T17:18:27;27.00;88.10
6863;DHT22;3470;48.738;9.616;2023-09-12T17:20:52;26.80;88.60
6863;DHT22;3470;48.738;9.616;2023-09-12T17:23:18;26.70;88.00
6863;DHT22;3470;48.738;9.616;2023-09-12T17:25:43;26.60;87.40
6863;DHT22;3470;48.738;9.616;2023-09-12T17:28:09;26.60;87.80
6863;DHT22;3470;48.738;9.616;2023-09-12T17:30:34;26.60;87.20
6863;DHT22;3470;48.738;9.616;2023-09-12T17:33:00;26.50;86.40
6863;DHT22;3470;48.738;9.616;2023-09-12T17:35:26;26.40;86.50
6863;DHT22;3470;48.738;9.616;2023-09-12T17:37:51;26.20;87.00
6863;DHT22;3470;48.738;9.616;2023-09-12T17:40:17;26.00;87.60
6863;DHT22;3470;48.738;9.616;2023-09-12T17:42:43;25.90;87.90
6863;DHT22;3470;48.738;9.616;2023-09-12T17:45:09;25.70;87.90
6863;DHT22;3470;48.738;9.616;2023-09-12T17:47:35;25.60;88.20
6863;DHT22;3470;48.738;9.616;2023-09-12T17:50:01;25.50;88.60
6863;DHT22;3470;48.738;9.616;2023-09-12T17:52:29;25.30;89.10
6863;DHT22;3470;48.738;9.616;2023-09-12T17:54:55;25.20;89.40
6863;DHT22;3470;48.738;9.616;2023-09-12T17:57:20;25.10;89.30
6863;DHT22;3470;48.738;9.616;2023-09-12T17:59:46;25.00;89.30
6863;DHT22;3470;48.738;9.616;2023-09-12T18:02:13;24.90;89.30
6863;DHT22;3470;48.738;9.616;2023-09-12T18:04:39;24.80;88.20
6863;DHT22;3470;48.738;9.616;2023-09-12T18:07:05;24.80;88.60
6863;DHT22;3470;48.738;9.616;2023-09-12T18:09:31;24.70;88.50
6863;DHT22;3470;48.738;9.616;2023-09-12T18:11:57;24.70;88.70
6863;DHT22;3470;48.738;9.616;2023-09-12T18:14:22;24.60;88.40
6863;DHT22;3470;48.738;9.616;2023-09-12T18:16:51;24.50;88.80
6863;DHT22;3470;48.738;9.616;2023-09-12T18:19:16;24.50;88.80
6863;DHT22;3470;48.738;9.616;2023-09-12T18:21:42;24.40;88.40
6863;DHT22;3470;48.738;9.616;2023-09-12T18:24:08;24.40;88.60
6863;DHT22;3470;48.738;9.616;2023-09-12T18:26:33;24.30;88.50
6863;DHT22;3470;48.738;9.616;2023-09-12T18:29:01;24.30;87.30
6863;DHT22;3470;48.738;9.616;2023-09-12T18:31:26;24.30;87.20
6863;DHT22;3470;48.738;9.616;2023-09-12T18:33:52;24.20;87.00
6863;DHT22;3470;48.738;9.616;2023-09-12T18:36:18;24.20;86.60
6863;DHT22;3470;48.738;9.616;2023-09-12T18:38:44;24.20;86.80
6863;DHT22;3470;48.738;9.616;2023-09-12T18:41:10;24.10;87.00
6863;DHT22;3470;48.738;9.616;2023-09-12T18:43:37;24.00;87.50
6863;DHT22;3470;48.738;9.616;2023-09-12T18:46:03;23.90;87.80
6863;DHT22;3470;48.738;9.616;2023-09-12T18:48:29;23.70;88.20
6863;DHT22;3470;48.738;9.616;2023-09-12T18:50:55;23.60;88.50
6863;DHT22;3470;48.738;9.616;2023-09-12T18:53:21;23.50;89.20
6863;DHT22;3470;48.738;9.616;2023-09-12T18:55:47;23.40;89.50
6863;DHT22;3470;48.738;9.616;2023-09-12T18:58:14;23.30;89.90
6863;DHT22;3470;48.738;9.616;2023-09-12T19:00:43;23.20;90.10
6863;DHT22;3470;48.738;9.616;2023-09-12T19:03:10;23.10;90.30
6863;DHT22;3470;48.738;9.616;2023-09-12T19:05:36;23.00;90.40
6863;DHT22;3470;48.738;9.616;2023-09-12T19:08:02;23.00;90.60
6863;DHT22;3470;48.738;9.616;2023-09-12T19:10:29;23.00;90.70
6863;DHT22;3470;48.738;9.616;2023-09-12T19:12:55;23.00;90.70
6863;DHT22;3470;48.738;9.616;2023-09-12T19:15:21;23.00;90.70
6863;DHT22;3470;48.738;9.616;2023-09-12T19:17:46;23.00;90.70
6863;DHT22;3470;48.738;9.616;2023-09-12T19:20:12;23.00;90.50
6863;DHT22;3470;48.738;9.616;2023-09-12T19:22:38;23.00;90.60
6863;DHT22;3470;48.738;9.616;2023-09-12T19:25:05;22.90;90.50
6863;DHT22;3470;48.738;9.616;2023-09-12T19:27:33;22.80;90.70
6863;DHT22;3470;48.738;9.616;2023-09-12T19:29:59;22.80;90.60
6863;DHT22;3470;48.738;9.616;2023-09-12T19:32:27;22.90;90.50
6863;DHT22;3470;48.738;9.616;2023-09-12T19:34:53;22.80;90.30
6863;DHT22;3470;48.738;9.616;2023-09-12T19:37:18;22.80;90.20
6863;DHT22;3470;48.738;9.616;2023-09-12T19:39:44;22.80;90.30
6863;DHT22;3470;48.738;9.616;2023-09-12T19:42:10;22.70;90.40
6863;DHT22;3470;48.738;9.616;2023-09-12T19:44:35;22.70;90.60
6863;DHT22;3470;48.738;9.616;2023-09-12T19:47:01;22.60;90.80
6863;DHT22;3470;48.738;9.616;2023-09-12T19:49:26;22.60;91.00
6863;DHT22;3470;48.738;9.616;2023-09-12T19:51:52;22.50;91.00
6863;DHT22;3470;48.738;9.616;2023-09-12T19:54:18;22.50;91.10
6863;DHT22;3470;48.738;9.616;2023-09-12T19:56:44;22.40;91.30
6863;DHT22;3470;48.738;9.616;2023-09-12T19:59:10;22.30;91.50
6863;DHT22;3470;48.738;9.616;2023-09-12T20:01:35;22.30;91.80
6863;DHT22;3470;48.738;9.616;2023-09-12T20:04:01;22.20;92.10
6863;DHT22;3470;48.738;9.616;2023-09-12T20:06:27;22.10;92.20
6863;DHT22;3470;48.738;9.616;2023-09-12T20:08:52;22.00;92.50
6863;DHT22;3470;48.738;9.616;2023-09-12T20:11:18;21.90;92.60
6863;DHT22;3470;48.738;9.616;2023-09-12T20:13:45;21.90;92.90
6863;DHT22;3470;48.738;9.616;2023-09-12T20:16:17;21.80;93.10
6863;DHT22;3470;48.738;9.616;2023-09-12T20:18:43;21.70;93.20
6863;DHT22;3470;48.738;9.616;2023-09-12T20:21:09;21.70;93.40
6863;DHT22;3470;48.738;9.616;2023-09-12T20:23:35;21.60;93.50
6863;DHT22;3470;48.738;9.616;2023-09-12T20:26:01;21.50;93.90
6863;DHT22;3470;48.738;9.616;2023-09-12T20:28:33;21.40;94.00
6863;DHT22;3470;48.738;9.616;2023-09-12T20:30:59;21.30;94.60
6863;DHT22;3470;48.738;9.616;2023-09-12T20:33:25;21.20;95.20
6863;DHT22;3470;48.738;9.616;2023-09-12T20:35:51;21.20;95.60
6863;DHT22;3470;48.738;9.616;2023-09-12T20:38:16;21.20;95.20
6863;DHT22;3470;48.738;9.616;2023-09-12T20:40:42;21.40;95.00
6863;DHT22;3470;48.738;9.616;2023-09-12T20:43:10;21.40;95.20
6863;DHT22;3470;48.738;9.616;2023-09-12T20:45:36;21.30;95.60
6863;DHT22;3470;48.738;9.616;2023-09-12T20:48:01;21.20;95.80
6863;DHT22;3470;48.738;9.616;2023-09-12T20:50:28;21.10;95.90
6863;DHT22;3470;48.738;9.616;2023-09-12T20:53:04;21.00;96.20
6863;DHT22;3470;48.738;9.616;2023-09-12T20:55:38;20.90;96.40
6863;DHT22;3470;48.738;9.616;2023-09-12T20:58:04;20.80;96.70
6863;DHT22;3470;48.738;9.616;2023-09-12T21:00:29;20.80;96.80
6863;DHT22;3470;48.738;9.616;2023-09-12T21:02:55;20.80;96.80
6863;DHT22;3470;48.738;9.616;2023-09-12T21:05:20;20.70;97.00
6863;DHT22;3470;48.738;9.616;2023-09-12T21:07:46;20.70;97.10
6863;DHT22;3470;48.738;9.616;2023-09-12T21:10:12;20.70;97.00
6863;DHT22;3470;48.738;9.616;2023-09-12T21:12:38;20.70;97.10
6863;DHT22;3470;48.738;9.616;2023-09-12T21:15:04;20.60;97.40
6863;DHT22;3470;48.738;9.616;2023-09-12T21:17:35;20.60;97.50
6863;DHT22;3470;48.738;9.616;2023-09-12T21:20:01;20.40;97.80
6863;DHT22;3470;48.738;9.616;2023-09-12T21:22:27;20.30;98.30
6863;DHT22;3470;48.738;9.616;2023-09-12T21:24:52;20.20;98.90
6863;DHT22;3470;48.738;9.616;2023-09-12T21:27:19;20.10;99.10
6863;DHT22;3470;48.738;9.616;2023-09-12T21:29:45;20.00;99.50
6863;DHT22;3470;48.738;9.616;2023-09-12T21:32:10;19.90;99.50
6863;DHT22;3470;48.738;9.616;2023-09-12T21:34:36;19.80;99.80
6863;DHT22;3470;48.738;9.616;2023-09-12T21:37:01;19.80;99.90
6863;DHT22;3470;48.738;9.616;2023-09-12T21:39:27;19.70;99.90
6863;DHT22;3470;48.738;9.616;2023-09-12T21:41:52;19.80;99.90
6863;DHT22;3470;48.738;9.616;2023-09-12T21:44:21;19.90;99.50
6863;DHT22;3470;48.738;9.616;2023-09-12T21:46:46;19.90;99.20
6863;DHT22;3470;48.738;9.616;2023-09-12T21:49:12;19.90;99.50
6863;DHT22;3470;48.738;9.616;2023-09-12T21:51:37;19.80;99.70
6863;DHT22;3470;48.738;9.616;2023-09-12T21:54:03;19.80;99.90
6863;DHT22;3470;48.738;9.616;2023-09-12T21:56:29;19.80;99.60
6863;DHT22;3470;48.738;9.616;2023-09-12T21:58:54;19.70;99.50
6863;DHT22;3470;48.738;9.616;2023-09-12T22:01:21;19.80;99.10
6863;DHT22;3470;48.738;9.616;2023-09-12T22:03:47;19.80;98.30
6863;DHT22;3470;48.738;9.616;2023-09-12T22:06:12;20.00;97.70
6863;DHT22;3470;48.738;9.616;2023-09-12T22:08:38;20.10;97.10
6863;DHT22;3470;48.738;9.616;2023-09-12T22:11:03;20.20;96.60
6863;DHT22;3470;48.738;9.616;2023-09-12T22:13:29;20.50;95.90
6863;DHT22;3470;48.738;9.616;2023-09-12T22:15:54;20.60;95.70
6863;DHT22;3470;48.738;9.616;2023-09-12T22:18:20;20.50;96.00
6863;DHT22;3470;48.738;9.616;2023-09-12T22:20:46;20.50;96.10
6863;DHT22;3470;48.738;9.616;2023-09-12T22:23:12;20.40;96.30
6863;DHT22;3470;48.738;9.616;2023-09-12T22:25:38;20.40;96.40
6863;DHT22;3470;48.738;9.616;2023-09-12T22:28:04;20.30;96.70
6863;DHT22;3470;48.738;9.616;2023-09-12T22:30:29;20.20;97.20
6863;DHT22;3470;48.738;9.616;2023-09-12T22:32:55;20.10;98.00
6863;DHT22;3470;48.738;9.616;2023-09-12T22:35:20;20.00;98.60
6863;DHT22;3470;48.738;9.616;2023-09-12T22:37:46;19.80;99.30
6863;DHT22;3470;48.738;9.616;2023-09-12T22:40:12;19.60;99.90
6863;DHT22;3470;48.738;9.616;2023-09-12T22:42:37;19.50;99.90
6863;DHT22;3470;48.738;9.616;2023-09-12T22:45:05;19.40;99.90
6863;DHT22;3470;48.738;9.616;2023-09-12T22:47:30;19.30;99.90
6863;DHT22;3470;48.738;9.616;2023-09-12T22:49:57;19.20;99.90
6863;DHT22;3470;48.738;9.616;2023-09-12T22:52:24;19.20;99.90
6863;DHT22;3470;48.738;9.616;2023-09-12T22:54:50;19.30;99.90
6863;DHT22;3470;48.738;9.616;2023-09-12T22:57:16;19.30;99.90
6863;DHT22;3470;48.738;9.616;2023-09-12T22:59:42;19.30;99.90
6863;DHT22;3470;48.738;9.616;2023-09-12T23:02:08;19.20;99.90
6863;DHT22;3470;48.738;9.616;2023-09-12T23:04:34;19.20;99.90
6863;DHT22;3470;48.738;9.616;2023-09-12T23:07:00;19.20;99.90
6863;DHT22;3470;48.738;9.616;2023-09-12T23:09:25;19.10;99.90
6863;DHT22;3470;48.738;9.616;2023-09-12T23:11:51;19.00;99.90
6863;DHT22;3470;48.738;9.616;2023-09-12T23:14:17;19.10;99.90
6863;DHT22;3470;48.738;9.616;2023-09-12T23:16:42;19.00;99.90
6863;DHT22;3470;48.738;9.616;2023-09-12T23:19:08;19.00;99.90
6863;DHT22;3470;48.738;9.616;2023-09-12T23:21:34;18.90;99.90
6863;DHT22;3470;48.738;9.616;2023-09-12T23:23:59;18.90;99.90
6863;DHT22;3470;48.738;9.616;2023-09-12T23:26:25;18.90;99.90
6863;DHT22;3470;48.738;9.616;2023-09-12T23:28:50;18.90;99.90
6863;DHT22;3470;48.738;9.616;2023-09-12T23:31:16;18.90;99.90
6863;DHT22;3470;48.738;9.616;2023-09-12T23:33:41;18.90;99.90
6863;DHT22;3470;48.738;9.616;2023-09-12T23:36:07;18.90;99.90
6863;DHT22;3470;48.738;9.616;2023-09-12T23:38:34;18.90;99.90
6863;DHT22;3470;48.738;9.616;2023-09-12T23:41:00;18.90;99.90
6863;DHT22;3470;48.738;9.616;2023-09-12T23:43:25;18.80;99.90
6863;DHT22;3470;48.738;9.616;2023-09-12T23:45:51;18.90;99.90
6863;DHT22;3470;48.738;9.616;2023-09-12T23:48:16;19.00;99.90
6863;DHT22;3470;48.738;9.616;2023-09-12T23:50:42;19.10;99.90
6863;DHT22;3470;48.738;9.616;2023-09-12T23:53:08;19.20;99.90
6863;DHT22;3470;48.738;9.616;2023-09-12T23:55:33;19.30;99.90
6863;DHT22;3470;48.738;9.616;2023-09-12T23:57:59;19.30;99.90
